createdAt,value
2019-01-26T00:00:47.097Z,6.50
2019-01-26T00:06:51.473Z,6.50
2019-01-26T00:12:55.789Z,6.40
2019-01-26T00:19:00.036Z,6.50
2019-01-26T00:25:04.884Z,6.40
2019-01-26T00:31:09.172Z,6.40
2019-01-26T00:37:13.409Z,6.40
2019-01-26T00:43:18.012Z,6.30
2019-01-26T00:49:22.269Z,6.30
2019-01-26T00:55:26.561Z,6.40
2019-01-26T01:01:30.843Z,6.40
2019-01-26T01:07:35.077Z,6.40
2019-01-26T01:13:39.323Z,6.40
2019-01-26T01:19:43.621Z,6.40
2019-01-26T01:25:47.896Z,6.30
2019-01-26T01:31:52.151Z,6.30
2019-01-26T01:37:56.667Z,6.20
2019-01-26T01:44:00.874Z,6.20
2019-01-26T01:50:05.656Z,6.20
2019-01-26T01:56:09.957Z,6.10
2019-01-26T02:02:14.185Z,6.00
2019-01-26T02:08:18.414Z,5.90
2019-01-26T02:14:22.698Z,5.80
2019-01-26T02:20:27.000Z,5.80
2019-01-26T02:26:31.224Z,5.70
2019-01-26T02:32:35.465Z,5.70
2019-01-26T02:38:39.718Z,5.80
2019-01-26T02:44:43.948Z,5.80
2019-01-26T02:50:48.416Z,5.80
2019-01-26T02:56:52.654Z,5.80
2019-01-26T03:02:57.012Z,5.80
2019-01-26T03:09:01.307Z,5.80
2019-01-26T03:15:07.957Z,5.80
2019-01-26T03:21:12.226Z,5.80
2019-01-26T03:27:16.434Z,5.70
2019-01-26T03:33:20.722Z,5.80
2019-01-26T03:39:25.025Z,5.80
2019-01-26T03:45:29.324Z,5.80
2019-01-26T03:51:33.555Z,5.70
2019-01-26T03:57:37.870Z,5.60
2019-01-26T04:03:42.107Z,5.60
2019-01-26T04:09:46.410Z,5.40
2019-01-26T04:15:50.607Z,5.30
2019-01-26T04:21:55.281Z,5.30
2019-01-26T04:27:59.574Z,5.30
2019-01-26T04:34:03.779Z,5.20
2019-01-26T04:40:10.590Z,5.20
2019-01-26T04:46:14.944Z,5.10
2019-01-26T04:52:19.174Z,5.00
2019-01-26T04:58:23.448Z,5.10
2019-01-26T05:04:27.674Z,5.10
2019-01-26T05:10:32.002Z,5.10
2019-01-26T05:16:36.238Z,5.20
2019-01-26T05:22:40.557Z,5.40
2019-01-26T05:28:44.853Z,5.50
2019-01-26T05:34:49.148Z,5.80
2019-01-26T05:40:53.365Z,5.80
2019-01-26T05:46:57.651Z,5.80
2019-01-26T05:53:01.956Z,5.90
2019-01-26T05:59:06.239Z,6.20
2019-01-26T06:05:10.791Z,6.40
2019-01-26T06:11:15.334Z,6.90
2019-01-26T06:17:19.564Z,7.10
2019-01-26T06:23:23.785Z,6.40
2019-01-26T06:29:28.034Z,6.20
2019-01-26T06:35:32.252Z,6.10
2019-01-26T06:41:36.674Z,6.00
2019-01-26T06:47:40.935Z,5.90
2019-01-26T06:53:45.225Z,5.70
2019-01-26T06:59:49.483Z,5.60
2019-01-26T07:06:01.162Z,5.50
2019-01-26T07:12:05.707Z,5.40
2019-01-26T07:18:10.150Z,5.40
2019-01-26T07:24:14.493Z,5.40
2019-01-26T07:30:20.543Z,5.40
2019-01-26T07:36:24.731Z,5.60
2019-01-26T07:42:29.123Z,5.60
2019-01-26T07:48:33.509Z,5.70
2019-01-26T07:54:37.740Z,5.80
2019-01-26T08:00:42.026Z,5.80
2019-01-26T08:06:46.347Z,5.90
2019-01-26T08:12:51.202Z,6.00
2019-01-26T08:18:55.494Z,6.00
2019-01-26T08:24:59.741Z,6.10
2019-01-26T08:31:04.212Z,6.10
2019-01-26T08:37:08.496Z,6.30
2019-01-26T08:43:12.872Z,6.50
2019-01-26T08:49:17.290Z,6.60
2019-01-26T08:55:21.658Z,6.60
2019-01-26T09:01:25.944Z,6.60
2019-01-26T09:07:30.247Z,6.60
2019-01-26T09:13:34.479Z,6.70
2019-01-26T09:19:38.702Z,6.80
2019-01-26T09:25:42.980Z,6.80
2019-01-26T09:31:47.273Z,6.90
2019-01-26T09:37:51.509Z,6.90
2019-01-26T09:43:55.843Z,7.00
2019-01-26T09:50:00.098Z,7.00
2019-01-26T09:56:04.543Z,7.10
2019-01-26T10:02:09.085Z,7.60
2019-01-26T10:08:13.391Z,7.40
2019-01-26T10:14:17.661Z,7.40
2019-01-26T10:20:23.909Z,7.50
2019-01-26T10:26:28.095Z,7.60
2019-01-26T10:32:32.360Z,7.60
2019-01-26T10:38:39.707Z,7.70
2019-01-26T10:44:44.487Z,7.70
2019-01-26T10:50:48.850Z,7.80
2019-01-26T10:56:53.079Z,7.70
2019-01-26T11:02:57.588Z,7.60
2019-01-26T11:09:01.946Z,7.60
2019-01-26T11:15:06.698Z,7.60
2019-01-26T11:21:10.952Z,7.70
2019-01-26T11:27:15.387Z,7.80
2019-01-26T11:33:19.991Z,8.00
2019-01-26T11:39:24.338Z,8.20
2019-01-26T11:45:44.889Z,8.40
2019-01-26T11:52:08.116Z,8.60
2019-01-26T11:58:12.396Z,8.60
2019-01-26T12:04:24.016Z,8.60
2019-01-26T12:10:28.467Z,8.70
2019-01-26T12:16:32.816Z,8.90
2019-01-26T12:22:37.037Z,9.10
2019-01-26T12:28:41.315Z,9.40
2019-01-26T12:34:45.632Z,8.90
2019-01-26T12:40:49.990Z,8.80
2019-01-26T12:46:54.168Z,8.60
2019-01-26T12:52:58.562Z,8.60
2019-01-26T12:59:02.895Z,8.60
2019-01-26T13:05:07.248Z,8.80
2019-01-26T13:11:20.342Z,8.70
2019-01-26T13:17:24.577Z,8.70
2019-01-26T13:23:28.910Z,8.80
2019-01-26T13:29:33.128Z,8.90
2019-01-26T13:35:37.400Z,9.00
2019-01-26T13:41:41.690Z,9.10
2019-01-26T13:47:46.280Z,9.20
2019-01-26T13:53:50.588Z,9.20
2019-01-26T13:59:57.296Z,9.20
2019-01-26T14:06:01.667Z,9.40
2019-01-26T14:12:05.894Z,9.40
2019-01-26T14:18:10.135Z,9.50
2019-01-26T14:24:14.394Z,9.50
2019-01-26T14:30:33.467Z,9.60
2019-01-26T14:36:37.769Z,9.70
2019-01-26T14:42:42.156Z,9.80
2019-01-26T14:48:46.527Z,9.60
2019-01-26T14:54:50.813Z,9.60
2019-01-26T15:00:55.211Z,9.80
2019-01-26T15:06:59.446Z,9.80
2019-01-26T15:13:03.710Z,10.10
2019-01-26T15:19:07.995Z,9.80
2019-01-26T15:25:12.289Z,9.80
2019-01-26T15:31:16.597Z,9.60
2019-01-26T15:37:20.883Z,9.60
2019-01-26T15:43:25.122Z,9.60
2019-01-26T15:49:29.355Z,9.30
2019-01-26T15:55:33.602Z,9.20
2019-01-26T16:01:37.965Z,9.30
2019-01-26T16:07:42.267Z,9.30
2019-01-26T16:13:46.670Z,9.50
2019-01-26T16:19:51.264Z,9.50
2019-01-26T16:25:55.591Z,9.80
2019-01-26T16:31:59.892Z,10.30
2019-01-26T16:38:04.450Z,9.80
2019-01-26T16:44:08.670Z,9.70
2019-01-26T16:50:27.301Z,9.90
2019-01-26T16:56:27.090Z,10.50
2019-01-26T17:02:31.436Z,10.10
2019-01-26T17:08:35.635Z,9.60
2019-01-26T17:14:39.923Z,9.60
2019-01-26T17:20:44.825Z,9.50
2019-01-26T17:26:52.884Z,9.70
2019-01-26T17:32:55.265Z,9.50
2019-01-26T17:38:59.475Z,9.70
2019-01-26T17:45:04.286Z,9.70
2019-01-26T17:51:08.638Z,10.10
2019-01-26T17:57:12.847Z,10.30
2019-01-26T18:03:17.219Z,9.90
2019-01-26T18:09:21.539Z,10.50
2019-01-26T18:15:25.772Z,10.10
2019-01-26T18:21:30.079Z,11.20
2019-01-26T18:27:34.381Z,9.80
2019-01-26T18:33:38.672Z,10.00
2019-01-26T18:39:42.983Z,10.00
2019-01-26T18:45:47.272Z,10.10
2019-01-26T18:51:52.431Z,9.90
2019-01-26T18:57:56.660Z,10.10
2019-01-26T19:04:24.333Z,9.60
2019-01-26T19:10:28.613Z,8.60
2019-01-26T19:16:32.929Z,8.90
2019-01-26T19:22:37.218Z,9.10
2019-01-26T19:28:41.448Z,9.10
2019-01-26T19:34:45.751Z,8.90
2019-01-26T19:40:50.057Z,8.80
2019-01-26T19:46:54.398Z,10.70
2019-01-26T19:52:58.622Z,11.10
2019-01-26T19:59:03.031Z,11.10
2019-01-26T20:05:08.666Z,11.80
2019-01-26T20:11:12.994Z,10.30
2019-01-26T20:17:17.200Z,10.70
2019-01-26T20:23:21.460Z,10.90
2019-01-26T20:29:25.684Z,10.60
2019-01-26T20:35:29.933Z,11.00
2019-01-26T20:41:34.152Z,10.50
2019-01-26T20:47:38.388Z,11.60
2019-01-26T20:53:42.706Z,11.20
2019-01-26T20:59:46.966Z,11.00
2019-01-26T21:05:51.350Z,10.80
2019-01-26T21:11:55.575Z,11.00
2019-01-26T21:17:59.809Z,11.70
2019-01-26T21:24:04.158Z,11.10
2019-01-26T21:30:12.084Z,12.40
2019-01-26T21:36:16.404Z,11.60
2019-01-26T21:42:20.667Z,12.20
2019-01-26T21:48:25.031Z,12.60
2019-01-26T21:54:29.450Z,12.40
2019-01-26T22:00:34.737Z,12.80
2019-01-26T22:06:39.069Z,12.20
2019-01-26T22:12:43.402Z,11.80
2019-01-26T22:18:47.655Z,12.10
2019-01-26T22:24:51.983Z,12.00
2019-01-26T22:30:56.495Z,12.50
2019-01-26T22:37:00.843Z,11.70
2019-01-26T22:43:05.223Z,11.40
2019-01-26T22:49:09.517Z,11.50
2019-01-26T22:55:16.099Z,12.30
2019-01-26T23:01:30.390Z,12.70
2019-01-26T23:07:41.771Z,11.10
2019-01-26T23:14:10.898Z,11.30
2019-01-26T23:20:49.139Z,11.30
2019-01-26T23:27:21.404Z,11.30
2019-01-26T23:33:25.597Z,11.80
2019-01-26T23:39:29.881Z,11.30
2019-01-26T23:45:34.155Z,11.20
2019-01-26T23:51:38.430Z,11.30
2019-01-26T23:57:42.704Z,10.90
